Glenwood, Indiana
Current Conditions -  °F | °C
As of 3:53 AM on Saturday 01 Nov 2014 (Local Time) from KGEZ Reporting Station
Overcast Overcast  
Wind Chill: 23°   Ceiling: 3800
Heat Index: 34°   Visibility: 10mi
Dew Point: 25°   Wind: 17mph
Humidity: 70%   Direction: 340°NNW
Pressure: 30.16"   Gusts: 25mph
Location:  39.63°N, 85.3°W
Report Text: KGEZ 010753Z AUTO 34015G22KT 10SM FEW026 OVC038 01/M04 A3016 RMK AO2 SLP220 T00111039
Loading
Personal Weather Stations






























Interactive Weather Map
Tropical Storm Tracking
New forecast layout! Learn more

10-Day Weather Forecast

Advertisements
Track Severe Weather on mobile